LOWILOWS

Guest
Details From LOWI - Innsbruck Kranebitten
To LOWS - Salzburg Maxglan
Flight Number -
Tags decoded
Created
Modified
Stats Distance 88 nm / 163 km
Max Altitude 0 ft / 0 m
Waypoints 4
Social Downloads 1
Likes 0
Share VATSIM

Download

Looking for another format? Having issues loading an existing format? Contact us
Advertisement - Login to hide

Notes

Requested: LOWI RTT SBG LOWS

Route

LOWI RTT SBG LOWS

ID Type Via Altitude Latitude Longitude Leg Dist Tot Dist Heading (true) Name
O LOWI APT - 0 ft / 0 m 47.26023˚ 11.34397˚ - 0 nm - Innsbruck Kranebitten
RTT NDB - 0 ft / 0 m 47.43092˚ 11.94005˚ 26 nm 26 nm 67° / 67° RATTENBERG NDB
SBG NDB - 0 ft / 0 m 47.96753˚ 12.89408˚ 50 nm 76 nm 50° / 50° SALZBURG NDB
O LOWS APT - 0 ft / 0 m 47.79333˚ 13.00433˚ 11 nm 87 nm 157° / 157° Salzburg Maxglan

Altitude Profile

Advertisement - Login to hide

LOWI

Details ICAO LOWI (INN)
Name Innsbruck Kranebitten
Region Austria
Timezone Europe/Vienna (UTC+2.0)
Stats Elevation 1,906 ft / 581 m (AMSL)
Location 47.260226° 11.343967°
Runways 1
Magnetic Variation 3.071° E

METAR

LOWI 231650Z VRB01KT 9999 FEW050 FEW060CB SCT090 BKN300 19/13 Q1017 NOSIG

Decode

TAF

TAF TAF AMD LOWI 231348Z 2313/2412 08006KT 9999 SCT070 BKN100 TX23/2314Z TN14/2404Z TEMPO 2313/2320 11012G25KT -SHRA FEW060CB BKN080 PROB30 TEMPO 2313/2320 VRB20G35KT TSRA FEW050CB BKN070 BECMG 2319/2321 27005KT PROB40 TEMPO 2322/2406 27010KT SHRA FEW060TCU BKN080 BECMG 2409/2411 08007KT SCT070 FEW070TCU

Decode

Departure Runways

ID Width Length Bearing (true) Bearing (mag) Surface Threshold Offset Overrun Length
08 148 ft / 45 m 6,545 ft / 1,995 m 81.02° 77.95° Asphalt 338 ft / 103 m 0 ft / 0 m
26 148 ft / 45 m 6,545 ft / 1,995 m 261.04° 257.97° Asphalt 0 ft / 0 m 0 ft / 0 m

LOWS

Details ICAO LOWS (SZG)
Name Salzburg Maxglan
Region Austria
Timezone Europe/Vienna (UTC+2.0)
Stats Elevation 1,411 ft / 430 m (AMSL)
Location 47.793333° 13.004333°
Runways 1
Magnetic Variation 3.480° E

METAR

LOWS 231650Z 16005KT 9999 FEW050 FEW050CB BKN090 18/15 Q1017 NOSIG

Decode

TAF

TAF LOWS 231115Z 2312/2412 34006KT 9999 SCT050 FEW060CB BKN300 TX24/2315Z TN13/2404Z TEMPO 2313/2317 VRB15G25KT 8000 TSRA SCT050CB BKN070 BECMG 2317/2319 15005KT PROB30 TEMPO 2323/2409 6000 SHRA SCT012 SCT030CB BKN040 TEMPO 2409/2412 VRB15G25KT 6000 TSRA SCT030CB BKN050

Decode

Destination Runways

ID Width Length Bearing (true) Bearing (mag) Surface Threshold Offset Overrun Length
16 148 ft / 45 m 9,024 ft / 2,751 m 157.08° 153.60° Concrete 656 ft / 200 m 0 ft / 0 m
34 148 ft / 45 m 9,024 ft / 2,751 m 337.09° 333.61° Concrete 787 ft / 240 m 0 ft / 0 m

Approach Navaids

Runway Type Ident Frequency Range Bearing (true) Bearing (mag) Slope Elevation
16 Localiser OES 109.90 MHz 18 nm / 33 km 157.53° 154.05° - 1,411 ft / 430 m (AMSL)
16 Glidescope OES 109.90 MHz 10 nm / 19 km 157.09° 153.61° 3.00° 1,446 ft / 441 m (AMSL)
16 DME OES 109.90 MHz 18 nm / 33 km - - - 1,446 ft / 441 m (AMSL)

Popular Alternatives